< Typhoon 201719 2017 Season Typhoon 201721 >
Typhoon 201720 (KHANUN)
General InformationTrack Information on Google MapsDetailed Wind InformationForecast History on Google MapsAccess Analytics MapList of All Images || NewsDisaster Info.WeblogTrackbackTyphoon FrontTwiphoonTyphoon Now!Typhoon ImaginationJMA Disaster Info. XMLResourceGoogle EarthGE AnimationAtom FeedGeoJSON
Detalied Best Track (Time Zone = UTC)
Year Month Day Hour Lat. Long. Pressure (hPa) Wind (kt) Class Image Chart
2017 10 11 00 15.5 134.0 1002 0 2 Image Chart
2017 10 11 06 16.2 132.1 1002 0 2 Image Chart
2017 10 11 12 17.0 130.1 1002 0 2 Image Chart
2017 10 11 18 17.7 128.2 1000 0 2 Image Chart
2017 10 12 00 18.3 126.1 1000 0 2 Image Chart
2017 10 12 06 18.7 124.6 998 0 2 Image Chart
2017 10 12 12 18.5 123.3 996 35 3 Image Chart
2017 10 12 18 18.2 121.9 994 35 3 Image Chart
2017 10 13 00 17.6 120.3 992 35 3 Image Chart
2017 10 13 06 16.9 119.4 985 45 3 Image Chart
2017 10 13 12 16.7 118.7 985 45 3 Image Chart
2017 10 13 18 16.7 118.3 980 50 4 Image Chart
2017 10 14 00 17.3 118.1 980 50 4 Image Chart
2017 10 14 06 18.0 118.0 975 55 4 Image Chart
2017 10 14 12 18.7 117.5 970 60 4 Image Chart
2017 10 14 18 19.5 116.4 960 70 5 Image Chart
2017 10 15 00 20.2 114.7 955 75 5 Image Chart
2017 10 15 06 20.6 113.2 960 70 5 Image Chart
2017 10 15 12 20.9 111.7 975 50 4 Image Chart
2017 10 15 18 20.8 110.6 990 40 3 Image Chart
2017 10 16 00 20.3 109.9 1004 0 2 Image Chart
2017 10 16 06 20.5 109.3 1004 0 2 Image Chart
Japan Meteorological Agency Best Track Data | Correction Date : 2017-12-07
< Typhoon 201719 2017 Season Typhoon 201721 >

Help